This is the latest recevied weather packets stored in our database for station/object K5SVV. If no packets are shown the sender has not sent any weather packets the latest 10 day(s).
| Time | Temp. | Humidity | Pressure | Rain* | Wind** | Luminosity | Snow |
|---|---|---|---|---|---|---|---|
| 1788631710 | 35.56° C | 50% | 1013.4 hPa | 0 mm | - | 262 W/m² | - |
| 1788631405 | 35° C | 49% | 1013.2 hPa | 0 mm | - | 848 W/m² | - |
| 1788631100 | 33.89° C | 53% | 1013.6 hPa | 0 mm | - | 859 W/m² | - |
| 1788630794 | 33.33° C | 53% | 1013.6 hPa | 0 mm | - | 503 W/m² | - |
| 1788630489 | 33.33° C | 54% | 1013.8 hPa | 0 mm | - | 160 W/m² | - |
| 1788630186 | 34.44° C | 53% | 1013.7 hPa | 0 mm | - | 181 W/m² | - |
| 1788629881 | 33.89° C | 52% | 1013.9 hPa | 0 mm | - | 842 W/m² | - |
| 1788629577 | 35° C | 52% | 1014 hPa | 0 mm | - | 174 W/m² | - |
| 1788629276 | 35.56° C | 50% | 1013.9 hPa | 0 mm | - | 808 W/m² | - |
| 1788628975 | 35° C | 50% | 1014 hPa | 0 mm | - | 838 W/m² | - |
| 1788628671 | 34.44° C | 52% | 1014.2 hPa | 0 mm | - | 879 W/m² | - |
| 1788628368 | 33.89° C | 53% | 1014.1 hPa | 0 mm | - | 387 W/m² | - |
| 1788628064 | 33.33° C | 54% | 1014.1 hPa | 0 mm | - | 874 W/m² | - |
| 1788627760 | 33.89° C | 54% | 1014.2 hPa | 0 mm | - | 255 W/m² | - |
| 1788627458 | 33.33° C | 55% | 1014.2 hPa | 0 mm | - | 812 W/m² | - |
| 1788627154 | 33.89° C | 55% | 1014.4 hPa | 0 mm | - | 203 W/m² | - |
| 1788626854 | 33.89° C | 54% | 1014.2 hPa | 0 mm | - | 820 W/m² | - |
| 1788626549 | 33.89° C | 56% | 1014.1 hPa | 0 mm | - | 841 W/m² | - |
| 1788626245 | 33.33° C | 55% | 1014.1 hPa | 0 mm | - | 216 W/m² | - |
| 1788625972 | 33.33° C | 57% | 1014.2 hPa | 0 mm | - | 663 W/m² | - |
| 1788625637 | 32.78° C | 59% | 1014.4 hPa | 0 mm | - | 649 W/m² | - |
| 1788625336 | 33.33° C | 58% | 1014.4 hPa | 0 mm | - | 660 W/m² | - |
| 1788625031 | 32.78° C | 57% | 1014.5 hPa | 0 mm | - | 708 W/m² | - |
| 1788624730 | 33.33° C | 57% | 1014.4 hPa | 0 mm | - | 723 W/m² | - |
| 1788624428 | 33.33° C | 58% | 1014.5 hPa | 0 mm | - | 752 W/m² | - |
* Rain latest hour (hover to see other rain measurements)
** Current wind speed in m/s (hover to see current wind gust speed)